createdAt,value
2023-02-12T00:00:33.331Z,4.40
2023-02-12T00:05:55.293Z,4.90
2023-02-12T00:11:20.438Z,3.47
2023-02-12T00:16:42.108Z,5.35
2023-02-12T00:22:03.852Z,2.92
2023-02-12T00:27:25.944Z,2.95
2023-02-12T00:32:47.653Z,1.80
2023-02-12T00:38:09.440Z,2.17
2023-02-12T00:43:31.260Z,2.70
2023-02-12T00:48:52.966Z,1.95
2023-02-12T00:54:14.821Z,2.58
2023-02-12T00:59:38.017Z,2.05
2023-02-12T01:04:59.825Z,1.50
2023-02-12T01:10:22.235Z,2.78
2023-02-12T01:15:43.959Z,2.35
2023-02-12T01:21:10.919Z,1.42
2023-02-12T01:26:33.409Z,1.52
2023-02-12T01:31:55.316Z,2.53
2023-02-12T01:37:17.263Z,1.13
2023-02-12T01:42:40.640Z,0.95
2023-02-12T01:48:02.590Z,1.85
2023-02-12T01:53:28.561Z,1.45
2023-02-12T01:58:52.795Z,1.63
2023-02-12T02:04:19.966Z,1.02
2023-02-12T02:09:42.395Z,1.02
2023-02-12T02:15:05.265Z,0.70
2023-02-12T02:21:05.020Z,2.25
2023-02-12T02:26:56.933Z,0.60
2023-02-12T02:32:24.595Z,0.63
2023-02-12T02:37:51.959Z,0.98
2023-02-12T02:43:22.660Z,1.38
2023-02-12T02:48:49.461Z,0.50
2023-02-12T02:54:17.970Z,0.93
2023-02-12T02:59:48.659Z,0.80
2023-02-12T03:05:18.098Z,1.05
2023-02-12T03:10:47.208Z,0.52
2023-02-12T03:16:28.709Z,0.68
2023-02-12T03:21:59.678Z,0.68
2023-02-12T03:27:39.070Z,0.95
2023-02-12T03:33:36.105Z,1.10
2023-02-12T03:39:05.665Z,0.50
2023-02-12T03:44:45.426Z,0.47
2023-02-12T03:50:12.352Z,0.63
2023-02-12T03:55:40.352Z,0.50
2023-02-12T04:01:03.569Z,0.47
2023-02-12T04:06:29.044Z,0.65
2023-02-12T04:12:00.197Z,0.85
2023-02-12T04:17:46.891Z,0.45
2023-02-12T04:23:31.741Z,0.75
2023-02-12T04:29:25.858Z,0.40
2023-02-12T04:35:20.903Z,0.50
2023-02-12T04:40:43.611Z,0.50
2023-02-12T04:46:07.688Z,0.65
2023-02-12T04:51:29.491Z,0.47
2023-02-12T04:56:52.103Z,0.60
2023-02-12T05:02:13.836Z,0.47
2023-02-12T05:07:35.546Z,0.60
2023-02-12T05:12:57.266Z,0.40
2023-02-12T05:18:19.061Z,1.42
2023-02-12T05:23:42.151Z,0.45
2023-02-12T05:29:03.986Z,0.43
2023-02-12T05:34:25.705Z,0.30
2023-02-12T05:39:50.446Z,0.40
2023-02-12T05:45:12.119Z,0.57
2023-02-12T05:50:34.273Z,0.88
2023-02-12T05:55:56.293Z,0.30
2023-02-12T06:01:24.259Z,0.50
2023-02-12T06:06:46.205Z,0.43
2023-02-12T06:12:08.011Z,0.40
2023-02-12T06:17:29.800Z,0.40
2023-02-12T06:22:51.504Z,0.40
2023-02-12T06:28:13.278Z,0.40
2023-02-12T06:33:35.893Z,0.40
2023-02-12T06:38:57.992Z,1.33
2023-02-12T06:44:19.788Z,0.50
2023-02-12T06:49:41.522Z,0.55
2023-02-12T06:55:03.361Z,0.52
2023-02-12T07:00:25.345Z,0.40
2023-02-12T07:05:48.519Z,0.40
2023-02-12T07:11:10.753Z,0.30
2023-02-12T07:16:32.592Z,3.28
2023-02-12T07:21:54.356Z,7.53
2023-02-12T07:27:16.120Z,5.63
2023-02-12T07:32:37.860Z,6.00
2023-02-12T07:37:59.719Z,8.63
2023-02-12T07:43:21.381Z,8.82
2023-02-12T07:48:44.125Z,9.73
2023-02-12T07:54:06.486Z,13.40
2023-02-12T07:59:28.761Z,9.98
2023-02-12T08:04:50.513Z,7.60
2023-02-12T08:10:12.418Z,4.30
2023-02-12T08:15:34.063Z,4.03
2023-02-12T08:20:55.746Z,3.45
2023-02-12T08:26:22.105Z,3.35
2023-02-12T08:31:46.519Z,3.50
2023-02-12T08:37:08.345Z,8.80
2023-02-12T08:42:30.023Z,6.22
2023-02-12T08:47:51.766Z,6.63
2023-02-12T08:53:13.707Z,5.05
2023-02-12T08:58:35.968Z,4.78
2023-02-12T09:03:57.944Z,6.80
2023-02-12T09:09:20.361Z,6.65
2023-02-12T09:14:42.360Z,8.15
2023-02-12T09:20:04.201Z,6.80
2023-02-12T09:25:26.666Z,14.38
2023-02-12T09:30:49.182Z,9.48
2023-02-12T09:36:17.014Z,8.63
2023-02-12T09:42:08.090Z,5.30
2023-02-12T09:48:13.118Z,6.30
2023-02-12T09:53:40.265Z,12.13
2023-02-12T09:59:06.487Z,8.40
2023-02-12T10:04:28.956Z,7.82
2023-02-12T10:10:18.745Z,6.75
2023-02-12T10:16:08.301Z,8.07
2023-02-12T10:21:38.817Z,11.27
2023-02-12T10:27:09.694Z,8.48
2023-02-12T10:32:36.224Z,6.03
2023-02-12T10:38:04.705Z,16.25
2023-02-12T10:43:26.456Z,10.82
2023-02-12T10:48:59.011Z,17.75
2023-02-12T10:54:42.468Z,9.13
2023-02-12T11:00:33.638Z,10.13
2023-02-12T11:05:55.770Z,9.20
2023-02-12T11:11:28.366Z,13.98
2023-02-12T11:16:59.078Z,16.02
2023-02-12T11:22:20.843Z,14.95
2023-02-12T11:27:42.623Z,9.75
2023-02-12T11:33:22.730Z,14.13
2023-02-12T11:38:54.762Z,11.98
2023-02-12T11:44:27.339Z,14.25
2023-02-12T11:49:54.760Z,12.38
2023-02-12T11:55:30.986Z,10.68
2023-02-12T12:01:19.346Z,9.82
2023-02-12T12:06:47.111Z,14.10
2023-02-12T12:12:30.202Z,9.98
2023-02-12T12:18:18.412Z,8.38
2023-02-12T12:23:45.408Z,6.90
2023-02-12T12:29:23.405Z,6.65
2023-02-12T12:34:45.239Z,5.72
2023-02-12T12:40:16.094Z,5.90
2023-02-12T12:45:50.454Z,2.85
2023-02-12T12:51:27.636Z,12.95
2023-02-12T12:56:52.120Z,12.25
2023-02-12T13:02:36.694Z,8.40
2023-02-12T13:08:19.325Z,9.57
2023-02-12T13:13:46.381Z,11.52
2023-02-12T13:19:34.377Z,15.20
2023-02-12T13:25:27.653Z,11.50
2023-02-12T13:30:52.464Z,6.80
2023-02-12T13:36:15.268Z,4.70
2023-02-12T13:41:37.361Z,8.18
2023-02-12T13:47:17.555Z,5.63
2023-02-12T13:52:52.340Z,9.15
2023-02-12T13:58:33.157Z,13.63
2023-02-12T14:03:54.978Z,10.63
2023-02-12T14:09:22.184Z,5.55
2023-02-12T14:14:50.227Z,17.48
2023-02-12T14:20:28.456Z,19.73
2023-02-12T14:25:58.184Z,13.13
2023-02-12T14:31:20.246Z,7.90
2023-02-12T14:36:44.182Z,13.75
2023-02-12T14:42:26.205Z,11.60
2023-02-12T14:47:47.959Z,4.50
2023-02-12T14:53:26.050Z,11.45
2023-02-12T14:58:49.646Z,7.35
2023-02-12T15:04:33.597Z,16.67
2023-02-12T15:10:10.235Z,7.03
2023-02-12T15:15:37.562Z,7.53
2023-02-12T15:21:23.161Z,13.73
2023-02-12T15:26:50.375Z,14.73
2023-02-12T15:32:39.001Z,9.00
2023-02-12T15:38:01.956Z,15.73
2023-02-12T15:43:27.720Z,15.55
2023-02-12T15:48:50.002Z,7.60
2023-02-12T15:54:17.999Z,9.45
2023-02-12T15:59:41.561Z,13.50
2023-02-12T16:05:05.915Z,13.65
2023-02-12T16:10:27.995Z,12.50
2023-02-12T16:16:04.912Z,10.15
2023-02-12T16:21:26.817Z,8.88
2023-02-12T16:26:49.305Z,5.97
2023-02-12T16:32:27.219Z,4.90
2023-02-12T16:37:52.469Z,6.50
2023-02-12T16:43:25.179Z,8.52
2023-02-12T16:48:51.854Z,9.98
2023-02-12T16:54:33.469Z,11.52
2023-02-12T16:59:55.384Z,11.60
2023-02-12T17:05:18.552Z,13.52
2023-02-12T17:10:41.054Z,9.88
2023-02-12T17:16:03.262Z,11.63
2023-02-12T17:21:43.354Z,10.10
2023-02-12T17:27:05.311Z,10.60
2023-02-12T17:32:27.048Z,7.93
2023-02-12T17:37:48.741Z,7.93
2023-02-12T17:43:10.599Z,6.03
2023-02-12T17:48:32.299Z,6.70
2023-02-12T17:53:54.097Z,4.82
2023-02-12T17:59:15.814Z,5.85
2023-02-12T18:04:37.692Z,6.38
2023-02-12T18:09:59.672Z,4.60
2023-02-12T18:15:21.681Z,4.40
2023-02-12T18:20:44.036Z,5.10
2023-02-12T18:26:10.980Z,4.90
2023-02-12T18:31:33.211Z,8.50
2023-02-12T18:36:55.142Z,9.98
2023-02-12T18:42:16.877Z,9.65
2023-02-12T18:47:38.654Z,11.27
2023-02-12T18:53:00.467Z,12.10
2023-02-12T18:58:22.467Z,8.95
2023-02-12T19:03:45.747Z,5.22
2023-02-12T19:09:07.994Z,5.40
2023-02-12T19:14:29.729Z,6.82
2023-02-12T19:19:52.041Z,7.15
2023-02-12T19:25:14.024Z,7.93
2023-02-12T19:30:40.755Z,8.38
2023-02-12T19:36:02.765Z,7.90
2023-02-12T19:41:26.149Z,8.15
2023-02-12T19:46:48.798Z,9.93
2023-02-12T19:52:10.612Z,7.70
2023-02-12T19:57:33.546Z,13.88
2023-02-12T20:02:55.751Z,14.98
2023-02-12T20:08:18.263Z,19.45
2023-02-12T20:13:40.319Z,12.38
2023-02-12T20:19:06.003Z,9.27
2023-02-12T20:24:32.841Z,9.27
2023-02-12T20:29:54.782Z,9.93
2023-02-12T20:35:16.996Z,10.63
2023-02-12T20:40:38.754Z,7.70
2023-02-12T20:46:09.237Z,7.75
2023-02-12T20:51:31.476Z,6.47
2023-02-12T20:56:53.179Z,9.50
2023-02-12T21:02:16.078Z,12.15
2023-02-12T21:07:37.896Z,11.23
2023-02-12T21:12:59.594Z,16.58
2023-02-12T21:18:25.711Z,13.52
2023-02-12T21:23:47.783Z,15.27
2023-02-12T21:29:09.740Z,7.75
2023-02-12T21:34:31.468Z,18.08
2023-02-12T21:39:53.197Z,10.57
2023-02-12T21:45:15.038Z,13.27
2023-02-12T21:50:36.808Z,10.32
2023-02-12T21:56:03.374Z,17.77
2023-02-12T22:01:28.041Z,13.75
2023-02-12T22:06:51.496Z,16.50
2023-02-12T22:12:13.194Z,13.80
2023-02-12T22:17:35.179Z,13.05
2023-02-12T22:22:57.028Z,11.25
2023-02-12T22:28:18.825Z,10.20
2023-02-12T22:33:40.966Z,9.38
2023-02-12T22:39:03.543Z,5.43
2023-02-12T22:44:25.242Z,8.63
2023-02-12T22:49:46.910Z,5.90
2023-02-12T22:55:08.653Z,6.93
2023-02-12T23:00:30.784Z,6.43
2023-02-12T23:05:52.503Z,6.30
2023-02-12T23:11:14.177Z,6.60
2023-02-12T23:16:35.990Z,7.35
2023-02-12T23:21:58.083Z,6.53
2023-02-12T23:27:19.824Z,8.70
2023-02-12T23:32:41.632Z,5.10
2023-02-12T23:38:04.574Z,4.32
2023-02-12T23:43:26.266Z,7.63
2023-02-12T23:48:48.005Z,6.45
2023-02-12T23:54:10.245Z,7.60
2023-02-12T23:59:32.103Z,4.60
